createdAt,value
2018-12-12T00:00:43.968Z,102270.97
2018-12-12T00:03:15.829Z,102270.92
2018-12-12T00:05:47.836Z,102270.47
2018-12-12T00:08:17.922Z,102269.80
2018-12-12T00:10:47.898Z,102269.02
2018-12-12T00:13:17.892Z,102279.77
2018-12-12T00:15:48.001Z,102276.99
2018-12-12T00:18:19.144Z,102270.35
2018-12-12T00:20:49.581Z,102265.23
2018-12-12T00:32:44.647Z,102269.28
2018-12-12T00:35:14.951Z,102274.09
2018-12-12T00:37:45.055Z,102276.34
2018-12-12T00:40:15.027Z,102270.35
2018-12-12T00:42:44.992Z,102273.82
2018-12-12T00:45:14.831Z,102273.16
2018-12-12T00:47:44.725Z,102274.14
2018-12-12T00:50:14.871Z,102284.20
2018-12-12T00:52:44.817Z,102290.73
2018-12-12T00:58:17.681Z,102292.17
2018-12-12T01:00:47.729Z,102301.13
2018-12-12T01:12:39.001Z,102300.77
2018-12-12T01:15:09.174Z,102303.11
2018-12-12T01:17:39.194Z,102305.16
2018-12-12T01:20:09.384Z,102309.24
2018-12-12T01:22:39.446Z,102304.53
2018-12-12T01:25:09.400Z,102303.70
2018-12-12T01:27:39.558Z,102312.66
2018-12-12T01:30:09.967Z,102310.76
2018-12-12T01:32:41.695Z,102312.16
2018-12-12T01:35:12.207Z,102309.28
2018-12-12T01:37:42.882Z,102312.69
2018-12-12T01:40:13.100Z,102304.77
2018-12-12T01:42:44.459Z,102306.41
2018-12-12T01:45:14.464Z,102304.41
2018-12-12T01:47:46.913Z,102310.66
2018-12-12T01:50:16.911Z,102309.02
2018-12-12T01:52:47.352Z,102314.07
2018-12-12T01:55:17.238Z,102306.14
2018-12-12T01:57:47.639Z,102309.78
2018-12-12T02:00:17.976Z,102316.47
2018-12-12T02:02:53.251Z,102308.22
2018-12-12T02:05:25.001Z,102311.16
2018-12-12T02:07:57.013Z,102317.80
2018-12-12T02:10:28.857Z,102316.47
2018-12-12T02:13:11.800Z,102320.51
2018-12-12T02:15:43.655Z,102316.45
2018-12-12T02:18:15.394Z,102326.47
2018-12-12T02:20:47.340Z,102330.77
2018-12-12T02:23:19.057Z,102323.30
2018-12-12T02:28:47.791Z,102328.81
2018-12-12T02:31:19.532Z,102330.61
2018-12-12T02:36:57.439Z,102329.19
2018-12-12T02:42:23.777Z,102334.41
2018-12-12T02:44:53.677Z,102337.92
2018-12-12T02:47:24.238Z,102334.20
2018-12-12T02:49:54.374Z,102336.92
2018-12-12T02:52:24.632Z,102336.22
2018-12-12T02:54:54.631Z,102335.66
2018-12-12T02:57:24.720Z,102344.50
2018-12-12T02:59:58.374Z,102339.59
2018-12-12T03:02:28.506Z,102338.87
2018-12-12T03:04:58.408Z,102344.30
2018-12-12T03:07:28.526Z,102346.55
2018-12-12T03:09:59.811Z,102349.20
2018-12-12T03:12:29.960Z,102345.97
2018-12-12T03:15:00.177Z,102348.70
2018-12-12T03:17:30.302Z,102349.36
2018-12-12T03:20:00.286Z,102346.19
2018-12-12T03:22:30.484Z,102346.64
2018-12-12T03:25:00.455Z,102347.06
2018-12-12T03:27:30.813Z,102348.95
2018-12-12T03:30:02.655Z,102349.02
2018-12-12T03:32:33.137Z,102343.08
2018-12-12T03:35:03.291Z,102346.09
2018-12-12T03:37:33.501Z,102341.13
2018-12-12T03:40:05.343Z,102345.79
2018-12-12T03:42:35.772Z,102355.59
2018-12-12T03:45:06.566Z,102351.00
2018-12-12T03:47:37.184Z,102354.37
2018-12-12T03:50:07.700Z,102360.45
2018-12-12T03:52:37.856Z,102356.98
2018-12-12T03:55:08.195Z,102362.95
2018-12-12T03:57:38.380Z,102363.98
2018-12-12T04:00:09.253Z,102362.61
2018-12-12T04:02:46.989Z,102364.02
2018-12-12T04:05:16.983Z,102362.28
2018-12-12T04:07:48.543Z,102366.33
2018-12-12T04:10:18.615Z,102362.14
2018-12-12T04:12:50.407Z,102367.86
2018-12-12T04:15:19.651Z,102364.50
2018-12-12T04:17:49.675Z,102369.87
2018-12-12T04:20:21.400Z,102360.72
2018-12-12T04:25:59.374Z,102367.56
2018-12-12T04:28:29.338Z,102371.39
2018-12-12T04:30:59.331Z,102370.12
2018-12-12T04:36:35.090Z,102377.89
2018-12-12T04:39:07.315Z,102380.91
2018-12-12T04:41:37.442Z,102375.17
2018-12-12T04:44:07.462Z,102377.16
2018-12-12T04:46:49.635Z,102380.95
2018-12-12T04:49:19.690Z,102378.34
2018-12-12T04:51:49.596Z,102377.88
2018-12-12T04:54:25.068Z,102385.30
2018-12-12T04:56:55.061Z,102388.46
2018-12-12T04:59:25.321Z,102387.75
2018-12-12T05:01:55.413Z,102381.61
2018-12-12T05:04:25.500Z,102383.20
2018-12-12T05:06:55.497Z,102386.89
2018-12-12T05:09:25.591Z,102387.81
2018-12-12T05:11:55.579Z,102386.59
2018-12-12T05:14:25.593Z,102390.41
2018-12-12T05:16:55.520Z,102396.38
2018-12-12T05:19:26.445Z,102394.05
2018-12-12T05:22:09.288Z,102398.75
2018-12-12T05:24:39.314Z,102394.10
2018-12-12T05:27:10.762Z,102404.27
2018-12-12T05:29:42.517Z,102405.50
2018-12-12T05:32:12.521Z,102406.05
2018-12-12T05:34:42.606Z,102413.98
2018-12-12T05:37:12.766Z,102412.86
2018-12-12T05:42:56.232Z,102422.22
2018-12-12T05:45:31.770Z,102423.81
2018-12-12T05:48:04.312Z,102426.83
2018-12-12T05:50:36.286Z,102427.39
2018-12-12T05:53:09.845Z,102422.98
2018-12-12T05:55:46.455Z,102429.69
2018-12-12T05:58:17.712Z,102425.23
2018-12-12T06:00:54.402Z,102427.18
2018-12-12T06:03:30.025Z,102434.45
2018-12-12T06:09:11.611Z,102433.20
2018-12-12T06:11:41.808Z,102431.88
2018-12-12T06:14:12.027Z,102427.73
2018-12-12T06:16:42.030Z,102438.23
2018-12-12T06:22:20.750Z,102431.08
2018-12-12T06:24:52.582Z,102438.23
2018-12-12T06:27:24.397Z,102442.84
2018-12-12T06:29:57.626Z,102447.13
2018-12-12T06:32:27.628Z,102450.91
2018-12-12T06:35:01.381Z,102454.69
2018-12-12T06:37:44.228Z,102456.58
2018-12-12T06:40:14.078Z,102460.57
2018-12-12T06:42:46.069Z,102471.14
2018-12-12T06:45:19.800Z,102463.28
2018-12-12T06:47:49.878Z,102461.04
2018-12-12T06:50:25.585Z,102465.89
2018-12-12T06:53:02.200Z,102467.02
2018-12-12T06:55:32.058Z,102472.39
2018-12-12T06:58:01.975Z,102472.27
2018-12-12T07:00:32.079Z,102481.28
2018-12-12T07:03:02.063Z,102481.55
2018-12-12T07:05:50.539Z,102481.70
2018-12-12T07:08:20.780Z,102486.04
2018-12-12T07:10:52.711Z,102488.05
2018-12-12T07:13:22.709Z,102495.34
2018-12-12T07:15:52.799Z,102496.53
2018-12-12T07:18:48.702Z,102496.67
2018-12-12T07:21:18.784Z,102497.56
2018-12-12T07:23:48.813Z,102497.83
2018-12-12T07:26:18.801Z,102501.28
2018-12-12T07:28:48.803Z,102501.70
2018-12-12T07:31:18.891Z,102500.43
2018-12-12T07:33:48.875Z,102505.69
2018-12-12T07:36:18.978Z,102509.32
2018-12-12T07:38:53.848Z,102512.13
2018-12-12T07:41:30.848Z,102509.06
2018-12-12T07:44:02.940Z,102513.41
2018-12-12T07:46:40.771Z,102516.27
2018-12-12T07:49:15.122Z,102514.11
2018-12-12T07:52:05.965Z,102524.16
2018-12-12T07:54:43.653Z,102527.02
2018-12-12T07:57:34.342Z,102530.75
2018-12-12T08:00:10.084Z,102526.17
2018-12-12T08:05:41.186Z,102530.75
2018-12-12T08:08:14.504Z,102544.11
2018-12-12T08:13:44.753Z,102528.91
2018-12-12T08:16:22.187Z,102533.47
2018-12-12T08:18:52.246Z,102535.42
2018-12-12T08:21:28.505Z,102537.10
2018-12-12T08:24:02.091Z,102530.25
2018-12-12T08:26:32.341Z,102536.60
2018-12-12T08:29:08.781Z,102526.17
2018-12-12T08:31:41.490Z,102529.62
2018-12-12T08:34:11.529Z,102538.79
2018-12-12T08:36:41.574Z,102537.88
2018-12-12T08:39:11.592Z,102540.53
2018-12-12T08:41:41.589Z,102548.98
2018-12-12T08:44:13.859Z,102548.06
2018-12-12T08:47:02.681Z,102544.55
2018-12-12T08:52:45.773Z,102550.42
2018-12-12T08:55:20.735Z,102551.31
2018-12-12T08:58:09.878Z,102554.17
2018-12-12T09:03:48.156Z,102560.77
2018-12-12T09:09:22.515Z,102561.02
2018-12-12T09:11:52.592Z,102563.94
2018-12-12T09:14:41.175Z,102557.78
2018-12-12T09:17:11.364Z,102566.95
2018-12-12T09:22:52.624Z,102562.81
2018-12-12T09:31:56.126Z,102571.36
2018-12-12T09:34:49.824Z,102568.39
2018-12-12T09:37:21.745Z,102569.09
2018-12-12T09:39:54.564Z,102572.98
2018-12-12T09:42:24.562Z,102577.89
2018-12-12T09:45:00.795Z,102577.94
2018-12-12T09:47:32.677Z,102573.59
2018-12-12T09:56:20.169Z,102575.97
2018-12-12T09:58:50.159Z,102579.26
2018-12-12T10:01:20.175Z,102582.64
2018-12-12T10:03:50.290Z,102579.51
2018-12-12T10:06:20.334Z,102585.30
2018-12-12T10:15:12.008Z,102590.67
2018-12-12T10:17:42.034Z,102594.28
2018-12-12T10:23:11.643Z,102597.53
2018-12-12T10:28:51.825Z,102585.30
2018-12-12T10:31:34.021Z,102592.36
2018-12-12T10:34:04.294Z,102586.37
2018-12-12T10:36:34.231Z,102588.84
2018-12-12T10:39:07.032Z,102590.52
2018-12-12T10:41:38.169Z,102584.37
2018-12-12T10:44:09.262Z,102590.37
2018-12-12T10:46:39.354Z,102584.76
2018-12-12T10:49:11.492Z,102583.63
2018-12-12T10:51:41.586Z,102582.13
2018-12-12T10:54:11.849Z,102587.16
2018-12-12T10:56:41.969Z,102582.17
2018-12-12T10:59:22.301Z,102584.02
2018-12-12T11:01:56.646Z,102583.20
2018-12-12T11:04:27.775Z,102581.59
2018-12-12T11:06:58.110Z,102575.52
2018-12-12T11:09:32.751Z,102574.33
2018-12-12T11:12:14.754Z,102567.52
2018-12-12T11:15:02.955Z,102573.20
2018-12-12T11:17:33.006Z,102580.38
2018-12-12T11:20:03.312Z,102574.57
2018-12-12T11:22:33.362Z,102580.30
2018-12-12T11:25:08.132Z,102582.02
2018-12-12T11:27:38.713Z,102581.70
2018-12-12T11:30:09.029Z,102583.35
2018-12-12T11:32:40.031Z,102584.88
2018-12-12T11:35:10.085Z,102576.69
2018-12-12T11:37:40.091Z,102578.14
2018-12-12T11:40:10.251Z,102577.86
2018-12-12T11:42:40.311Z,102580.38
2018-12-12T11:45:11.628Z,102581.23
2018-12-12T11:47:42.258Z,102571.28
2018-12-12T11:50:12.333Z,102578.02
2018-12-12T11:52:43.728Z,102575.36
2018-12-12T11:55:15.186Z,102575.91
2018-12-12T11:57:45.523Z,102580.18
2018-12-12T12:00:15.647Z,102577.20
2018-12-12T12:02:45.942Z,102577.78
2018-12-12T12:05:16.127Z,102582.29
2018-12-12T12:07:46.398Z,102579.23
2018-12-12T12:10:16.556Z,102577.89
2018-12-12T12:12:46.698Z,102575.17
2018-12-12T12:15:16.765Z,102568.22
2018-12-12T12:17:46.838Z,102575.80
2018-12-12T12:20:16.966Z,102567.16
2018-12-12T12:22:47.120Z,102568.89
2018-12-12T12:25:17.130Z,102572.88
2018-12-12T12:27:48.149Z,102577.28
2018-12-12T12:30:18.230Z,102564.27
2018-12-12T12:32:56.066Z,102566.42
2018-12-12T12:35:26.119Z,102568.84
2018-12-12T12:37:58.255Z,102570.38
2018-12-12T12:40:28.453Z,102566.63
2018-12-12T12:43:03.162Z,102562.83
2018-12-12T12:45:33.221Z,102567.68
2018-12-12T12:48:03.170Z,102562.58
2018-12-12T12:50:33.194Z,102560.84
2018-12-12T12:53:03.302Z,102556.13
2018-12-12T12:55:52.440Z,102557.42
2018-12-12T12:58:23.830Z,102554.94
2018-12-12T13:00:53.994Z,102556.77
2018-12-12T13:03:23.970Z,102550.23
2018-12-12T13:05:54.130Z,102555.00
2018-12-12T13:08:24.281Z,102550.65
2018-12-12T13:10:55.696Z,102554.45
2018-12-12T13:13:25.931Z,102555.98
2018-12-12T13:15:58.463Z,102547.25
2018-12-12T13:18:30.706Z,102545.59
2018-12-12T13:21:01.615Z,102550.92
2018-12-12T13:23:32.685Z,102550.03
2018-12-12T13:26:07.625Z,102555.87
2018-12-12T13:28:42.975Z,102555.98
2018-12-12T13:31:22.046Z,102559.48
2018-12-12T13:33:52.046Z,102554.27
2018-12-12T13:36:22.006Z,102552.58
2018-12-12T13:38:52.252Z,102553.62
2018-12-12T13:41:27.668Z,102553.67
2018-12-12T13:44:03.168Z,102552.09
2018-12-12T13:46:34.880Z,102552.42
2018-12-12T13:49:04.918Z,102553.83
2018-12-12T13:51:34.895Z,102548.81
2018-12-12T13:54:04.918Z,102558.14
2018-12-12T13:56:34.945Z,102549.83
2018-12-12T13:59:05.222Z,102551.44
2018-12-12T14:01:35.279Z,102550.84
2018-12-12T14:04:11.440Z,102548.53
2018-12-12T14:06:41.426Z,102550.89
2018-12-12T14:09:11.504Z,102551.23
2018-12-12T14:11:43.617Z,102550.12
2018-12-12T14:14:13.677Z,102544.91
2018-12-12T14:16:43.626Z,102547.89
2018-12-12T14:19:13.869Z,102542.41
2018-12-12T14:21:43.829Z,102547.18
2018-12-12T14:24:13.853Z,102545.58
2018-12-12T14:26:44.043Z,102555.14
2018-12-12T14:29:14.163Z,102551.79
2018-12-12T14:31:44.223Z,102553.43
2018-12-12T14:34:17.693Z,102554.50
2018-12-12T14:36:47.716Z,102555.08
2018-12-12T14:39:17.983Z,102555.05
2018-12-12T14:41:51.926Z,102553.52
2018-12-12T14:44:27.271Z,102552.53
2018-12-12T14:46:59.030Z,102550.03
2018-12-12T14:49:28.992Z,102544.70
2018-12-12T14:51:59.056Z,102551.44
2018-12-12T14:54:29.076Z,102548.53
2018-12-12T14:56:59.186Z,102550.64
2018-12-12T14:59:29.320Z,102547.11
2018-12-12T15:02:02.214Z,102547.18
2018-12-12T15:04:35.870Z,102550.10
2018-12-12T15:07:10.411Z,102548.16
2018-12-12T15:09:40.513Z,102551.20
2018-12-12T15:12:10.805Z,102547.56
2018-12-12T15:14:43.745Z,102545.70
2018-12-12T15:20:04.783Z,102543.27
2018-12-12T15:22:34.953Z,102553.19
2018-12-12T15:25:05.655Z,102550.23
2018-12-12T15:27:36.814Z,102553.00
2018-12-12T15:32:53.546Z,102552.23
2018-12-12T15:35:23.379Z,102550.02
2018-12-12T15:37:53.469Z,102550.43
2018-12-12T15:40:24.470Z,102554.66
2018-12-12T15:42:59.356Z,102552.98
2018-12-12T15:48:16.028Z,102563.20
2018-12-12T15:50:46.289Z,102565.18
2018-12-12T15:53:16.320Z,102559.85
2018-12-12T15:55:47.443Z,102563.42
2018-12-12T16:01:03.001Z,102560.98
2018-12-12T16:03:35.547Z,102556.22
2018-12-12T16:06:06.634Z,102564.42
2018-12-12T16:08:36.641Z,102561.34
2018-12-12T16:11:10.747Z,102561.38
2018-12-12T16:13:40.795Z,102567.81
2018-12-12T16:16:17.303Z,102562.28
2018-12-12T16:18:47.448Z,102563.61
2018-12-12T16:21:25.794Z,102566.52
2018-12-12T16:24:19.776Z,102563.72
2018-12-12T16:26:54.986Z,102566.16
2018-12-12T16:29:29.985Z,102561.38
2018-12-12T16:32:15.014Z,102560.79
2018-12-12T16:34:55.602Z,102562.43
2018-12-12T16:37:30.634Z,102558.00
2018-12-12T16:40:08.888Z,102562.41
2018-12-12T16:42:51.583Z,102556.16
2018-12-12T16:45:29.564Z,102552.63
2018-12-12T16:48:05.474Z,102557.04
2018-12-12T16:50:49.543Z,102555.63
2018-12-12T16:53:31.511Z,102562.27
2018-12-12T16:56:07.974Z,102560.16
2018-12-12T16:58:51.850Z,102567.76
2018-12-12T17:01:27.342Z,102565.62
2018-12-12T17:04:00.923Z,102565.75
2018-12-12T17:06:49.068Z,102562.30
2018-12-12T17:09:25.170Z,102570.25
2018-12-12T17:15:04.644Z,102570.72
2018-12-12T17:20:50.980Z,102566.55
2018-12-12T17:23:33.548Z,102569.98
2018-12-12T17:26:11.298Z,102567.56
2018-12-12T17:28:47.646Z,102569.89
2018-12-12T17:31:21.279Z,102573.32
2018-12-12T17:33:58.818Z,102564.36
2018-12-12T17:36:35.822Z,102570.66
2018-12-12T17:39:11.682Z,102578.14
2018-12-12T17:41:45.261Z,102575.58
2018-12-12T17:44:18.403Z,102569.33
2018-12-12T17:46:52.338Z,102575.36
2018-12-12T17:49:29.098Z,102575.49
2018-12-12T17:54:57.399Z,102569.34
2018-12-12T17:57:32.825Z,102578.03
2018-12-12T18:00:18.905Z,102565.59
2018-12-12T18:02:54.253Z,102569.05
2018-12-12T18:05:38.814Z,102569.63
2018-12-12T18:08:19.926Z,102571.25
2018-12-12T18:11:01.649Z,102574.29
2018-12-12T18:13:42.681Z,102574.19
2018-12-12T18:16:19.542Z,102578.17
2018-12-12T18:22:00.779Z,102578.92
2018-12-12T18:24:40.191Z,102581.27
2018-12-12T18:27:18.262Z,102577.72
2018-12-12T18:29:54.750Z,102576.31
2018-12-12T18:32:33.185Z,102581.34
2018-12-12T18:35:34.728Z,102574.70
2018-12-12T18:38:13.035Z,102572.63
2018-12-12T18:40:48.699Z,102568.06
2018-12-12T18:43:26.309Z,102568.87
2018-12-12T18:49:03.423Z,102576.20
2018-12-12T18:51:35.322Z,102572.94
2018-12-12T18:57:21.992Z,102571.72
2018-12-12T18:59:56.754Z,102575.28
2018-12-12T19:02:26.738Z,102572.98
2018-12-12T19:05:06.431Z,102570.86
2018-12-12T19:07:36.485Z,102572.41
2018-12-12T19:10:06.941Z,102573.95
2018-12-12T19:12:37.301Z,102573.81
2018-12-12T19:15:08.327Z,102577.58
2018-12-12T19:17:44.062Z,102579.27
2018-12-12T19:20:14.041Z,102582.00
2018-12-12T19:22:44.243Z,102582.50
2018-12-12T19:25:14.244Z,102585.66
2018-12-12T19:27:45.439Z,102579.34
2018-12-12T19:33:21.397Z,102575.71
2018-12-12T19:35:51.591Z,102579.02
2018-12-12T19:41:28.635Z,102580.41
2018-12-12T19:44:22.360Z,102572.70
2018-12-12T19:47:01.311Z,102571.66
2018-12-12T19:49:38.911Z,102576.00
2018-12-12T19:52:14.313Z,102573.66
2018-12-12T19:54:50.194Z,102568.85
2018-12-12T20:00:26.404Z,102572.41
2018-12-12T20:02:56.415Z,102576.89
2018-12-12T20:05:27.664Z,102574.16
2018-12-12T20:14:07.042Z,102579.63
2018-12-12T20:16:50.697Z,102580.20
2018-12-12T20:19:31.029Z,102578.11
2018-12-12T20:22:05.489Z,102575.56
2018-12-12T20:24:35.634Z,102581.45
2018-12-12T20:27:12.392Z,102576.64
2018-12-12T20:29:43.454Z,102578.16
2018-12-12T20:32:19.327Z,102577.04
2018-12-12T20:34:49.187Z,102570.68
2018-12-12T20:37:28.079Z,102585.16
2018-12-12T20:40:16.375Z,102579.84
2018-12-12T20:49:08.567Z,102583.11
2018-12-12T20:51:52.693Z,102580.05
2018-12-12T20:54:35.154Z,102577.11
2018-12-12T21:00:37.042Z,102579.30
2018-12-12T21:11:34.651Z,102585.30
2018-12-12T21:16:56.111Z,102574.74
2018-12-12T21:25:35.947Z,102575.64
2018-12-12T21:28:05.935Z,102570.64
2018-12-12T21:30:36.100Z,102571.04
2018-12-12T21:33:06.275Z,102576.64
2018-12-12T21:35:36.350Z,102572.30
2018-12-12T21:38:06.536Z,102572.86
2018-12-12T21:40:36.531Z,102570.23
2018-12-12T21:43:08.879Z,102571.19
2018-12-12T21:45:39.808Z,102563.36
2018-12-12T21:48:16.407Z,102570.22
2018-12-12T21:50:46.842Z,102568.73
2018-12-12T21:53:18.828Z,102566.44
2018-12-12T21:55:49.436Z,102567.34
2018-12-12T21:58:19.965Z,102567.20
2018-12-12T22:00:51.765Z,102570.36
2018-12-12T22:03:22.823Z,102566.73
2018-12-12T22:05:53.997Z,102552.36
2018-12-12T22:08:27.534Z,102561.34
2018-12-12T22:11:01.396Z,102562.51
2018-12-12T22:13:35.237Z,102556.22
2018-12-12T22:16:05.437Z,102554.53
2018-12-12T22:18:46.390Z,102558.45
2018-12-12T22:21:22.507Z,102551.81
2018-12-12T22:23:54.580Z,102560.20
2018-12-12T22:26:47.622Z,102557.41
2018-12-12T22:29:17.664Z,102553.20
2018-12-12T22:31:47.729Z,102556.09
2018-12-12T22:34:18.033Z,102559.57
2018-12-12T22:36:48.147Z,102558.03
2018-12-12T22:39:19.814Z,102558.58
2018-12-12T22:41:51.592Z,102552.79
2018-12-12T22:44:21.920Z,102556.48
2018-12-12T22:46:51.814Z,102551.45
2018-12-12T22:49:21.966Z,102555.25
2018-12-12T22:51:52.359Z,102556.22
2018-12-12T22:54:22.398Z,102557.20
2018-12-12T22:57:04.806Z,102561.23
2018-12-12T22:59:39.347Z,102562.88
2018-12-12T23:05:19.153Z,102574.69
2018-12-12T23:08:03.239Z,102573.58
2018-12-12T23:10:40.794Z,102577.97
2018-12-12T23:13:11.118Z,102572.58
2018-12-12T23:15:50.539Z,102568.52
2018-12-12T23:21:50.055Z,102570.42
2018-12-12T23:27:29.610Z,102567.41
2018-12-12T23:30:11.556Z,102571.39
2018-12-12T23:32:53.462Z,102572.93
2018-12-12T23:44:33.882Z,102568.19
2018-12-12T23:47:26.320Z,102569.66
2018-12-12T23:56:14.322Z,102561.11
2018-12-12T23:58:47.909Z,102568.97
